sensor_id;sensor_type;location;lat;lon;timestamp;pressure;altitude;pressure_sealevel;temperature;humidity
72395;BME280;60384;48.152;11.614;2022-07-29T00:02:55;95584.41;;;23.09;48.18
72395;BME280;60384;48.152;11.614;2022-07-29T00:05:59;95586.38;;;23.05;48.37
72395;BME280;60384;48.152;11.614;2022-07-29T00:08:59;95576.28;;;23.02;48.05
72395;BME280;60384;48.152;11.614;2022-07-29T00:12:01;95577.03;;;23.02;48.21
72395;BME280;60384;48.152;11.614;2022-07-29T00:15:01;95586.03;;;22.96;47.96
72395;BME280;60384;48.152;11.614;2022-07-29T00:18:02;95581.00;;;22.94;48.29
72395;BME280;60384;48.152;11.614;2022-07-29T00:21:03;95577.50;;;22.94;48.67
72395;BME280;60384;48.152;11.614;2022-07-29T00:24:03;95585.28;;;22.92;48.61
72395;BME280;60384;48.152;11.614;2022-07-29T00:27:04;95581.44;;;22.89;48.63
72395;BME280;60384;48.152;11.614;2022-07-29T00:30:06;95582.59;;;22.88;49.03
72395;BME280;60384;48.152;11.614;2022-07-29T00:33:06;95588.03;;;22.85;48.89
72395;BME280;60384;48.152;11.614;2022-07-29T00:36:07;95578.38;;;22.77;49.48
72395;BME280;60384;48.152;11.614;2022-07-29T00:39:07;95577.97;;;22.71;48.88
72395;BME280;60384;48.152;11.614;2022-07-29T00:42:07;95574.13;;;22.72;49.05
72395;BME280;60384;48.152;11.614;2022-07-29T00:45:08;95568.69;;;22.72;49.50
72395;BME280;60384;48.152;11.614;2022-07-29T00:48:09;95562.41;;;22.75;49.13
72395;BME280;60384;48.152;11.614;2022-07-29T00:51:09;95560.84;;;22.81;49.38
72395;BME280;60384;48.152;11.614;2022-07-29T00:54:12;95544.88;;;22.83;49.33
72395;BME280;60384;48.152;11.614;2022-07-29T00:57:12;95544.88;;;22.83;48.99
72395;BME280;60384;48.152;11.614;2022-07-29T01:00:17;95541.72;;;22.88;49.42
72395;BME280;60384;48.152;11.614;2022-07-29T01:03:18;95543.63;;;22.91;48.94
72395;BME280;60384;48.152;11.614;2022-07-29T01:06:19;95540.50;;;23.00;49.30
72395;BME280;60384;48.152;11.614;2022-07-29T01:09:20;95533.44;;;23.06;49.17
72395;BME280;60384;48.152;11.614;2022-07-29T01:12:25;95523.66;;;23.08;49.07
72395;BME280;60384;48.152;11.614;2022-07-29T01:15:27;95535.34;;;23.09;49.21
72395;BME280;60384;48.152;11.614;2022-07-29T01:18:34;95535.34;;;23.09;48.88
72395;BME280;60384;48.152;11.614;2022-07-29T01:21:53;95531.88;;;23.05;49.27
72395;BME280;60384;48.152;11.614;2022-07-29T01:31:47;95532.59;;;23.13;48.83
72395;BME280;60384;48.152;11.614;2022-07-29T01:38:13;95520.03;;;23.26;49.33
72395;BME280;60384;48.152;11.614;2022-07-29T01:41:19;95525.47;;;23.29;49.11
72395;BME280;60384;48.152;11.614;2022-07-29T01:44:45;95523.88;;;23.32;48.71
72395;BME280;60384;48.152;11.614;2022-07-29T01:51:17;95522.69;;;23.36;49.08
72395;BME280;60384;48.152;11.614;2022-07-29T01:54:38;95521.13;;;23.35;49.04
72395;BME280;60384;48.152;11.614;2022-07-29T01:57:46;95526.97;;;23.37;49.16
72395;BME280;60384;48.152;11.614;2022-07-29T02:00:48;95509.03;;;23.36;48.86
72395;BME280;60384;48.152;11.614;2022-07-29T02:03:49;95512.94;;;23.35;48.76
72395;BME280;60384;48.152;11.614;2022-07-29T02:06:52;95505.63;;;23.25;48.86
72395;BME280;60384;48.152;11.614;2022-07-29T02:09:55;95512.63;;;23.26;49.23
72395;BME280;60384;48.152;11.614;2022-07-29T02:12:57;95504.06;;;23.24;49.26
72395;BME280;60384;48.152;11.614;2022-07-29T02:16:00;95505.28;;;23.20;49.46
72395;BME280;60384;48.152;11.614;2022-07-29T02:19:04;95496.75;;;23.18;49.71
72395;BME280;60384;48.152;11.614;2022-07-29T02:22:08;95494.44;;;23.13;49.65
72395;BME280;60384;48.152;11.614;2022-07-29T02:25:10;95494.06;;;23.11;49.56
72395;BME280;60384;48.152;11.614;2022-07-29T02:28:13;95505.38;;;23.09;49.91
72395;BME280;60384;48.152;11.614;2022-07-29T02:31:17;95487.91;;;23.03;50.32
72395;BME280;60384;48.152;11.614;2022-07-29T02:34:20;95492.22;;;23.00;50.34
72395;BME280;60384;48.152;11.614;2022-07-29T02:37:21;95486.00;;;23.00;50.42
72395;BME280;60384;48.152;11.614;2022-07-29T02:40:22;95481.31;;;23.00;50.19
72395;BME280;60384;48.152;11.614;2022-07-29T02:43:23;95467.69;;;23.00;49.94
72395;BME280;60384;48.152;11.614;2022-07-29T02:46:29;95476.22;;;23.02;50.12
72395;BME280;60384;48.152;11.614;2022-07-29T02:49:38;95470.38;;;23.04;50.24
72395;BME280;60384;48.152;11.614;2022-07-29T02:52:45;95480.50;;;23.03;50.70
72395;BME280;60384;48.152;11.614;2022-07-29T02:55:59;95479.31;;;23.04;50.07
72395;BME280;60384;48.152;11.614;2022-07-29T02:59:05;95482.47;;;22.99;50.42
72395;BME280;60384;48.152;11.614;2022-07-29T03:02:06;95474.75;;;22.91;50.30
72395;BME280;60384;48.152;11.614;2022-07-29T03:05:11;95474.00;;;22.87;50.38
72395;BME280;60384;48.152;11.614;2022-07-29T03:08:14;95477.13;;;22.85;50.83
72395;BME280;60384;48.152;11.614;2022-07-29T03:11:16;95483.75;;;22.88;50.30
72395;BME280;60384;48.152;11.614;2022-07-29T03:14:18;95484.50;;;22.88;50.46
72395;BME280;60384;48.152;11.614;2022-07-29T03:17:20;95474.41;;;22.85;50.31
72395;BME280;60384;48.152;11.614;2022-07-29T03:20:21;95476.78;;;22.83;50.95
72395;BME280;60384;48.152;11.614;2022-07-29T03:23:22;95474.41;;;22.85;50.65
72395;BME280;60384;48.152;11.614;2022-07-29T03:26:23;95474.44;;;22.82;50.97
72395;BME280;60384;48.152;11.614;2022-07-29T03:29:24;95470.19;;;22.74;51.01
72395;BME280;60384;48.152;11.614;2022-07-29T03:32:25;95473.31;;;22.68;51.37
72395;BME280;60384;48.152;11.614;2022-07-29T03:35:25;95473.78;;;22.60;51.16
72395;BME280;60384;48.152;11.614;2022-07-29T03:38:28;95478.13;;;22.47;51.53
72395;BME280;60384;48.152;11.614;2022-07-29T03:41:30;95475.44;;;22.43;51.11
72395;BME280;60384;48.152;11.614;2022-07-29T03:44:32;95477.00;;;22.37;51.58
72395;BME280;60384;48.152;11.614;2022-07-29T03:47:35;95484.03;;;22.27;51.52
72395;BME280;60384;48.152;11.614;2022-07-29T03:50:36;95476.28;;;22.26;51.82
72395;BME280;60384;48.152;11.614;2022-07-29T03:53:36;95483.25;;;22.27;51.35
72395;BME280;60384;48.152;11.614;2022-07-29T03:56:42;95484.84;;;22.24;51.43
72395;BME280;60384;48.152;11.614;2022-07-29T03:59:43;95486.78;;;22.24;51.60
72395;BME280;60384;48.152;11.614;2022-07-29T04:02:44;95491.06;;;22.21;51.97
72395;BME280;60384;48.152;11.614;2022-07-29T04:06:05;95496.16;;;22.19;51.90
72395;BME280;60384;48.152;11.614;2022-07-29T04:09:07;95488.41;;;22.14;51.54
72395;BME280;60384;48.152;11.614;2022-07-29T04:12:08;95489.94;;;22.12;51.65
72395;BME280;60384;48.152;11.614;2022-07-29T04:15:08;95493.84;;;22.14;52.24
72395;BME280;60384;48.152;11.614;2022-07-29T04:18:09;95494.97;;;22.17;52.08
72395;BME280;60384;48.152;11.614;2022-07-29T04:21:09;95496.53;;;22.18;52.28
72395;BME280;60384;48.152;11.614;2022-07-29T04:24:10;95490.31;;;22.17;51.94
72395;BME280;60384;48.152;11.614;2022-07-29T04:27:10;95491.88;;;22.11;52.09
72395;BME280;60384;48.152;11.614;2022-07-29T04:30:11;95509.03;;;22.08;52.28
72395;BME280;60384;48.152;11.614;2022-07-29T04:33:12;95505.94;;;22.03;52.29
72395;BME280;60384;48.152;11.614;2022-07-29T04:36:12;95513.28;;;22.06;52.58
72395;BME280;60384;48.152;11.614;2022-07-29T04:39:13;95510.19;;;22.07;52.61
72395;BME280;60384;48.152;11.614;2022-07-29T04:42:13;95518.31;;;22.11;52.36
72395;BME280;60384;48.152;11.614;2022-07-29T04:45:14;95515.22;;;22.12;52.48
72395;BME280;60384;48.152;11.614;2022-07-29T04:48:14;95520.69;;;22.09;52.79
72395;BME280;60384;48.152;11.614;2022-07-29T04:51:15;95516.00;;;22.06;52.88
72395;BME280;60384;48.152;11.614;2022-07-29T04:54:15;95511.75;;;22.08;52.74
72395;BME280;60384;48.152;11.614;2022-07-29T04:57:16;95516.78;;;22.06;52.92
72395;BME280;60384;48.152;11.614;2022-07-29T05:00:16;95511.34;;;22.10;52.72
72395;BME280;60384;48.152;11.614;2022-07-29T05:03:17;95522.63;;;22.08;52.64
72395;BME280;60384;48.152;11.614;2022-07-29T05:06:18;95527.25;;;22.11;52.61
72395;BME280;60384;48.152;11.614;2022-07-29T05:09:18;95529.22;;;22.14;52.95
72395;BME280;60384;48.152;11.614;2022-07-29T05:12:19;95527.63;;;22.20;52.48
72395;BME280;60384;48.152;11.614;2022-07-29T05:15:19;95535.75;;;22.27;52.90
72395;BME280;60384;48.152;11.614;2022-07-29T05:18:20;95522.16;;;22.31;52.53
72395;BME280;60384;48.152;11.614;2022-07-29T05:21:20;95529.50;;;22.34;52.87
72395;BME280;60384;48.152;11.614;2022-07-29T05:24:20;95524.84;;;22.38;52.73
72395;BME280;60384;48.152;11.614;2022-07-29T05:27:21;95524.44;;;22.43;52.77
